Time;durP1;ratioP1;P1;durP2;ratioP2;P2;SDS_P1;SDS_P2;PMS_P1;PMS_P2;Temp;Humidity;BMP_temperature;BMP_pressure;BME280_temperature;BME280_humidity;BME280_pressure;Samples;Min_cycle;Max_cycle;Signal;HPM_P1;HPM_P2
2022/08/25 00:00:19;;;;;;;;;;;;;;;;;;5036099;28;19921;-84
2022/08/25 00:02:45;;;;;;;;;;;;;;;;;;5043038;28;19913;-83
2022/08/25 00:05:10;;;;;;;;;;;;;;;;;;5042805;28;19916;-85
2022/08/25 00:07:35;;;;;;;;;;;;;;;;;;5044589;28;20314;-84
2022/08/25 00:10:00;;;;;;;;;;;;;;;;;;5046760;28;19927;-84
2022/08/25 00:12:26;;;;;;;;;;;;;;;;;;5042866;28;20007;-85
2022/08/25 00:14:51;;;;;;;;;;;;;;;;;;5045252;28;20038;-85
2022/08/25 00:17:17;;;;;;;;;;;;;;;;;;5024138;28;19920;-84
2022/08/25 00:19:42;;;;;;;;;;;;;;;;;;5043272;28;19965;-84
2022/08/25 00:22:07;;;;;;;;;;;;;;;;;;5052755;28;20263;-85
2022/08/25 00:24:32;;;;;;;;;;;;;;;;;;5040864;28;19912;-84
2022/08/25 00:26:57;;;;;;;;;;;;;;;;;;5033662;28;19925;-84
2022/08/25 00:29:24;;;;;;;;;;;;;;;;;;5041652;28;20413;-84
2022/08/25 00:31:51;;;;;;;;;;;;;;;;;;5038366;28;20120;-84
2022/08/25 00:34:16;;;;;;;;;;;;;;;;;;5043144;28;19948;-84
2022/08/25 00:36:41;;;;;;;;;;;;;;;;;;5046564;28;20354;-84
2022/08/25 00:39:06;;;;;;;;;;;;;;;;;;5041492;28;19913;-84
2022/08/25 00:41:34;;;;;;;;;;;;;;;;;;5053031;28;19920;-84
2022/08/25 00:43:59;;;;;;;;;;;;;;;;;;5048830;28;19913;-84
2022/08/25 00:46:24;;;;;;;;;;;;;;;;;;5054875;28;19923;-83
2022/08/25 00:48:49;;;;;;;;;;;;;;;;;;5050966;28;20011;-84
2022/08/25 00:51:14;;;;;;;;;;;;;;;;;;5045927;28;19952;-84
2022/08/25 00:53:40;;;;;;;;;;;;;;;;;;5053665;28;19921;-84
2022/08/25 00:56:05;;;;;;;;;;;;;;;;;;5054088;28;19943;-84
2022/08/25 00:58:30;;;;;;;;;;;;;;;;;;5051863;28;20413;-84
2022/08/25 01:00:56;;;;;;;;;;;;;;;;;;5051656;28;20347;-85
2022/08/25 01:03:21;;;;;;;;;;;;;;;;;;5044251;28;19908;-84
2022/08/25 01:05:46;;;;;;;;;;;;;;;;;;5052055;28;19913;-84
2022/08/25 01:08:11;;;;;;;;;;;;;;;;;;5050836;28;19999;-84
2022/08/25 01:10:37;;;;;;;;;;;;;;;;;;5047790;28;20271;-84
2022/08/25 01:13:02;;;;;;;;;;;;;;;;;;5055225;28;19952;-84
2022/08/25 01:15:27;;;;;;;;;;;;;;;;;;5050979;28;20363;-84
2022/08/25 01:17:52;;;;;;;;;;;;;;;;;;5052024;28;20016;-84
2022/08/25 01:20:18;;;;;;;;;;;;;;;;;;5027822;28;19913;-84
2022/08/25 01:25:28;;;;;;;;;;;;;;;;;;5051540;28;19924;-84
2022/08/25 01:27:53;;;;;;;;;;;;;;;;;;5034116;28;20011;-84
2022/08/25 01:30:18;;;;;;;;;;;;;;;;;;5046501;28;19967;-85
2022/08/25 01:32:43;;;;;;;;;;;;;;;;;;5046601;28;19920;-84
2022/08/25 01:35:09;;;;;;;;;;;;;;;;;;5055339;28;19913;-84
2022/08/25 01:37:34;;;;;;;;;;;;;;;;;;5044954;28;19967;-84
2022/08/25 01:39:59;;;;;;;;;;;;;;;;;;5054768;28;19913;-84
2022/08/25 01:42:24;;;;;;;;;;;;;;;;;;5049207;28;19917;-84
2022/08/25 01:45:04;;;;;;;;;;;;;;;;;;5045161;28;19913;-83
2022/08/25 01:50:20;;;;;;;;;;;;;;;;;;5050905;28;19974;-84
2022/08/25 01:52:45;;;;;;;;;;;;;;;;;;5045507;28;19913;-84
2022/08/25 01:55:10;;;;;;;;;;;;;;;;;;5049482;28;19943;-84
2022/08/25 02:00:31;;;;;;;;;;;;;;;;;;5052130;28;19920;-84
2022/08/25 02:02:57;;;;;;;;;;;;;;;;;;5048611;28;19963;-84
2022/08/25 02:05:22;;;;;;;;;;;;;;;;;;5049559;28;19948;-84
2022/08/25 02:07:47;;;;;;;;;;;;;;;;;;5057249;28;19916;-84
2022/08/25 02:10:12;;;;;;;;;;;;;;;;;;5053192;28;20381;-84
2022/08/25 02:12:37;;;;;;;;;;;;;;;;;;5051961;28;19913;-84
2022/08/25 02:15:03;;;;;;;;;;;;;;;;;;5058424;28;20010;-84
2022/08/25 02:17:28;;;;;;;;;;;;;;;;;;5050395;28;19913;-84
2022/08/25 02:19:55;;;;;;;;;;;;;;;;;;5055281;28;20408;-84
2022/08/25 02:22:21;;;;;;;;;;;;;;;;;;5051791;28;19917;-85
2022/08/25 02:24:46;;;;;;;;;;;;;;;;;;5053237;28;19913;-84
2022/08/25 02:27:12;;;;;;;;;;;;;;;;;;5051013;28;20361;-84
2022/08/25 02:29:37;;;;;;;;;;;;;;;;;;5047087;28;19909;-84
2022/08/25 02:32:02;;;;;;;;;;;;;;;;;;5054076;28;19908;-84
2022/08/25 02:34:27;;;;;;;;;;;;;;;;;;5050459;28;19963;-84
2022/08/25 02:36:52;;;;;;;;;;;;;;;;;;5052824;28;19913;-84
2022/08/25 02:39:17;;;;;;;;;;;;;;;;;;5052752;28;20883;-84
2022/08/25 02:41:43;;;;;;;;;;;;;;;;;;5056719;28;20007;-84
2022/08/25 02:44:08;;;;;;;;;;;;;;;;;;5039298;28;19948;-84
2022/08/25 02:46:33;;;;;;;;;;;;;;;;;;5052925;28;19940;-85
2022/08/25 02:48:58;;;;;;;;;;;;;;;;;;5054207;28;19913;-84
2022/08/25 02:51:24;;;;;;;;;;;;;;;;;;5052953;28;19908;-84
2022/08/25 02:53:49;;;;;;;;;;;;;;;;;;5052087;28;20000;-84
2022/08/25 02:56:14;;;;;;;;;;;;;;;;;;5038284;28;19965;-84
2022/08/25 02:58:40;;;;;;;;;;;;;;;;;;5052231;28;20409;-83
2022/08/25 03:01:05;;;;;;;;;;;;;;;;;;5053773;28;19913;-84
2022/08/25 03:03:30;;;;;;;;;;;;;;;;;;5056120;28;19924;-84
2022/08/25 03:05:56;;;;;;;;;;;;;;;;;;5053236;28;19912;-84
2022/08/25 03:08:21;;;;;;;;;;;;;;;;;;5051918;28;19962;-84
2022/08/25 03:10:46;;;;;;;;;;;;;;;;;;5051597;28;19948;-84
2022/08/25 03:13:12;;;;;;;;;;;;;;;;;;5051607;28;19934;-83
2022/08/25 03:15:37;;;;;;;;;;;;;;;;;;5053502;28;19928;-84
2022/08/25 03:18:03;;;;;;;;;;;;;;;;;;5055947;28;19912;-84
2022/08/25 03:20:28;;;;;;;;;;;;;;;;;;5051635;28;19929;-84
2022/08/25 03:22:53;;;;;;;;;;;;;;;;;;5056237;28;19983;-84
2022/08/25 03:28:02;;;;;;;;;;;;;;;;;;5050894;28;19935;-84
2022/08/25 03:30:28;;;;;;;;;;;;;;;;;;5054878;28;19917;-84
2022/08/25 03:32:53;;;;;;;;;;;;;;;;;;5056924;28;19913;-84
2022/08/25 03:35:18;;;;;;;;;;;;;;;;;;5047526;28;20443;-84
2022/08/25 03:37:43;;;;;;;;;;;;;;;;;;5055557;28;19909;-83
2022/08/25 03:40:08;;;;;;;;;;;;;;;;;;5058359;28;20007;-84
2022/08/25 03:42:34;;;;;;;;;;;;;;;;;;5031157;28;19919;-84
2022/08/25 03:44:59;;;;;;;;;;;;;;;;;;5053131;28;19924;-84
2022/08/25 03:47:25;;;;;;;;;;;;;;;;;;5048462;28;19925;-83
2022/08/25 03:49:50;;;;;;;;;;;;;;;;;;5052595;28;20301;-84
2022/08/25 03:52:17;;;;;;;;;;;;;;;;;;5051509;28;19999;-84
2022/08/25 03:54:42;;;;;;;;;;;;;;;;;;5047656;28;20051;-83
2022/08/25 03:57:08;;;;;;;;;;;;;;;;;;5054696;28;19991;-84
2022/08/25 03:59:34;;;;;;;;;;;;;;;;;;5054853;28;19913;-84
2022/08/25 04:02:00;;;;;;;;;;;;;;;;;;5053494;28;19913;-84
2022/08/25 04:04:25;;;;;;;;;;;;;;;;;;5053587;28;19978;-83
2022/08/25 04:06:51;;;;;;;;;;;;;;;;;;5052427;28;20011;-84
2022/08/25 04:09:16;;;;;;;;;;;;;;;;;;5046578;28;19929;-83
2022/08/25 04:11:42;;;;;;;;;;;;;;;;;;5048621;28;19913;-83
2022/08/25 04:14:07;;;;;;;;;;;;;;;;;;5049367;28;19916;-84
2022/08/25 04:16:32;;;;;;;;;;;;;;;;;;5053920;28;19916;-83
2022/08/25 04:18:57;;;;;;;;;;;;;;;;;;5031760;28;20338;-83
2022/08/25 04:21:22;;;;;;;;;;;;;;;;;;5048801;28;19923;-84
2022/08/25 04:23:47;;;;;;;;;;;;;;;;;;5050457;28;19968;-84
2022/08/25 04:26:13;;;;;;;;;;;;;;;;;;5053770;28;19913;-83
2022/08/25 04:28:38;;;;;;;;;;;;;;;;;;5046063;28;20391;-83
2022/08/25 04:31:03;;;;;;;;;;;;;;;;;;5053540;28;19912;-83
2022/08/25 04:33:28;;;;;;;;;;;;;;;;;;5036177;28;19956;-84
2022/08/25 04:35:54;;;;;;;;;;;;;;;;;;5052597;28;19916;-84
2022/08/25 04:38:19;;;;;;;;;;;;;;;;;;5047757;28;19909;-84
2022/08/25 04:40:45;;;;;;;;;;;;;;;;;;5050084;28;20489;-83
2022/08/25 04:43:10;;;;;;;;;;;;;;;;;;5047658;28;20007;-83
2022/08/25 04:45:35;;;;;;;;;;;;;;;;;;5051715;28;19913;-84
2022/08/25 04:48:00;;;;;;;;;;;;;;;;;;5050338;28;19947;-84
2022/08/25 04:50:25;;;;;;;;;;;;;;;;;;5045992;28;19923;-84
2022/08/25 04:52:51;;;;;;;;;;;;;;;;;;5046242;28;19988;-84
2022/08/25 04:55:16;;;;;;;;;;;;;;;;;;5035559;28;19981;-84
2022/08/25 04:57:42;;;;;;;;;;;;;;;;;;5047321;28;19919;-84
2022/08/25 05:00:07;;;;;;;;;;;;;;;;;;5053253;28;19908;-84
2022/08/25 05:02:32;;;;;;;;;;;;;;;;;;5051901;28;20378;-84
2022/08/25 05:04:58;;;;;;;;;;;;;;;;;;5033056;28;19916;-84
2022/08/25 05:07:23;;;;;;;;;;;;;;;;;;5045974;28;20389;-84
2022/08/25 05:09:48;;;;;;;;;;;;;;;;;;5049528;28;19987;-84
2022/08/25 05:12:13;;;;;;;;;;;;;;;;;;5052306;28;19908;-84
2022/08/25 05:14:38;;;;;;;;;;;;;;;;;;5044437;28;20436;-84
2022/08/25 05:17:04;;;;;;;;;;;;;;;;;;5049784;28;19919;-84
2022/08/25 05:19:29;;;;;;;;;;;;;;;;;;5051689;28;19927;-84
2022/08/25 05:21:54;;;;;;;;;;;;;;;;;;5030053;28;20255;-84
2022/08/25 05:24:19;;;;;;;;;;;;;;;;;;5049404;28;19919;-84
2022/08/25 05:26:44;;;;;;;;;;;;;;;;;;5053825;28;20355;-84
2022/08/25 05:29:10;;;;;;;;;;;;;;;;;;5055550;28;20020;-84
2022/08/25 05:31:35;;;;;;;;;;;;;;;;;;5049021;28;20055;-84
2022/08/25 05:34:01;;;;;;;;;;;;;;;;;;5046317;28;19920;-85
2022/08/25 05:36:26;;;;;;;;;;;;;;;;;;5048602;28;19909;-84
2022/08/25 05:38:51;;;;;;;;;;;;;;;;;;5049266;28;19916;-84
2022/08/25 05:41:16;;;;;;;;;;;;;;;;;;5049205;28;19924;-84
2022/08/25 05:43:42;;;;;;;;;;;;;;;;;;5050103;28;20767;-84
2022/08/25 05:46:07;;;;;;;;;;;;;;;;;;5034879;28;19916;-84
2022/08/25 05:48:32;;;;;;;;;;;;;;;;;;5049454;28;20321;-84
2022/08/25 05:50:57;;;;;;;;;;;;;;;;;;5049452;28;19919;-84
2022/08/25 05:53:22;;;;;;;;;;;;;;;;;;5031187;28;19992;-83
2022/08/25 05:55:48;;;;;;;;;;;;;;;;;;5048494;28;20034;-84
2022/08/25 05:58:13;;;;;;;;;;;;;;;;;;5048645;28;19913;-84
2022/08/25 06:00:38;;;;;;;;;;;;;;;;;;5049302;28;20012;-84
2022/08/25 06:03:03;;;;;;;;;;;;;;;;;;5047936;28;19963;-85
2022/08/25 06:05:28;;;;;;;;;;;;;;;;;;5049557;28;19913;-84
2022/08/25 06:07:53;;;;;;;;;;;;;;;;;;5049539;28;20413;-84
2022/08/25 06:10:19;;;;;;;;;;;;;;;;;;5048696;28;20418;-84
2022/08/25 06:12:44;;;;;;;;;;;;;;;;;;5048987;28;20111;-84
2022/08/25 06:15:09;;;;;;;;;;;;;;;;;;5061407;28;19917;-84
2022/08/25 06:17:39;;;;;;;;;;;;;;;;;;5049269;28;19951;-85
2022/08/25 06:20:05;;;;;;;;;;;;;;;;;;5020892;28;20363;-85
2022/08/25 06:22:30;;;;;;;;;;;;;;;;;;5048006;28;19913;-84
2022/08/25 06:24:55;;;;;;;;;;;;;;;;;;5037987;28;19916;-84
2022/08/25 06:27:20;;;;;;;;;;;;;;;;;;5029521;28;20406;-84
2022/08/25 06:29:46;;;;;;;;;;;;;;;;;;5049356;28;20405;-83
2022/08/25 06:32:11;;;;;;;;;;;;;;;;;;5049324;28;19916;-84
2022/08/25 06:34:36;;;;;;;;;;;;;;;;;;5043230;28;19920;-84
2022/08/25 06:37:01;;;;;;;;;;;;;;;;;;5041952;28;19945;-83
2022/08/25 06:39:26;;;;;;;;;;;;;;;;;;5049351;28;19939;-84
2022/08/25 06:41:52;;;;;;;;;;;;;;;;;;5049326;28;19992;-83
2022/08/25 06:44:17;;;;;;;;;;;;;;;;;;5053798;28;20031;-83
2022/08/25 06:46:42;;;;;;;;;;;;;;;;;;5030302;28;19928;-83
2022/08/25 06:49:07;;;;;;;;;;;;;;;;;;5040430;28;20090;-84
2022/08/25 06:51:34;;;;;;;;;;;;;;;;;;5042915;28;19966;-85
2022/08/25 06:53:59;;;;;;;;;;;;;;;;;;5037245;28;19928;-85
2022/08/25 06:56:25;;;;;;;;;;;;;;;;;;5043040;28;20275;-84
2022/08/25 06:58:50;;;;;;;;;;;;;;;;;;5048607;28;19927;-83
2022/08/25 07:01:15;;;;;;;;;;;;;;;;;;5043806;28;20483;-83
2022/08/25 07:03:40;;;;;;;;;;;;;;;;;;5042999;28;19922;-84
2022/08/25 07:06:05;;;;;;;;;;;;;;;;;;5036624;28;20379;-84
2022/08/25 07:08:30;;;;;;;;;;;;;;;;;;5037900;28;20384;-84
2022/08/25 07:10:56;;;;;;;;;;;;;;;;;;5043781;28;19917;-85
2022/08/25 07:13:21;;;;;;;;;;;;;;;;;;5043775;28;19923;-84
2022/08/25 07:15:46;;;;;;;;;;;;;;;;;;5037100;28;19971;-84
2022/08/25 07:18:11;;;;;;;;;;;;;;;;;;5039543;28;19960;-84
2022/08/25 07:20:37;;;;;;;;;;;;;;;;;;5042892;28;19916;-85
2022/08/25 07:23:02;;;;;;;;;;;;;;;;;;5042228;28;20011;-84
2022/08/25 07:25:27;;;;;;;;;;;;;;;;;;5039161;28;20445;-84
2022/08/25 07:27:53;;;;;;;;;;;;;;;;;;5044476;28;20340;-84
2022/08/25 07:30:18;;;;;;;;;;;;;;;;;;5014654;28;19921;-84
2022/08/25 07:32:43;;;;;;;;;;;;;;;;;;5042175;28;20354;-84
2022/08/25 09:10:50;;;;;;;;;;;;;;;;;;5036856;28;19928;-91
2022/08/25 09:13:15;;;;;;;;;;;;;;;;;;5043114;28;19913;-89
2022/08/25 09:18:24;;;;;;;;;;;;;;;;;;5039059;28;19940;-89
2022/08/25 09:20:50;;;;;;;;;;;;;;;;;;5033747;28;19913;-90
2022/08/25 10:30:34;;;;;;;;;;;;;;;;;;5706806;22;20457;-86
2022/08/25 10:33:00;;;;;;;;;;;;;;;;;;5028918;28;20000;-87
2022/08/25 10:35:25;;;;;;;;;;;;;;;;;;5029869;28;19921;-86
2022/08/25 10:37:50;;;;;;;;;;;;;;;;;;5030515;28;19913;-86
2022/08/25 10:40:15;;;;;;;;;;;;;;;;;;5022832;28;20594;-87
2022/08/25 11:39:23;;;;;;;;;;;;;;;;;;5049907;28;19929;-86
2022/08/25 11:41:49;;;;;;;;;;;;;;;;;;5047396;28;19913;-85
2022/08/25 11:44:14;;;;;;;;;;;;;;;;;;5044751;28;19917;-86
2022/08/25 11:46:39;;;;;;;;;;;;;;;;;;5053335;28;20534;-87
2022/08/25 11:49:06;;;;;;;;;;;;;;;;;;5033389;28;19917;-86
2022/08/25 11:51:31;;;;;;;;;;;;;;;;;;5050436;28;19909;-85
2022/08/25 11:53:59;;;;;;;;;;;;;;;;;;5051507;28;19923;-86
2022/08/25 11:56:25;;;;;;;;;;;;;;;;;;5056367;28;19960;-87
2022/08/25 11:58:50;;;;;;;;;;;;;;;;;;5057855;28;19909;-85
2022/08/25 12:01:15;;;;;;;;;;;;;;;;;;5028047;28;19935;-86
2022/08/25 12:03:40;;;;;;;;;;;;;;;;;;5047070;28;20004;-86
2022/08/25 12:06:08;;;;;;;;;;;;;;;;;;5059176;28;20357;-87
2022/08/25 12:11:10;;;;;;;;;;;;;;;;;;5054707;28;19932;-87
2022/08/25 12:13:35;;;;;;;;;;;;;;;;;;5046589;28;19966;-87
2022/08/25 12:16:08;;;;;;;;;;;;;;;;;;5055921;28;19912;-87
2022/08/25 12:18:35;;;;;;;;;;;;;;;;;;5045316;28;19913;-86
2022/08/25 12:21:01;;;;;;;;;;;;;;;;;;5061608;28;19908;-86
2022/08/25 12:23:26;;;;;;;;;;;;;;;;;;5050022;28;19916;-86
2022/08/25 12:25:51;;;;;;;;;;;;;;;;;;5052261;28;19923;-86
2022/08/25 12:28:17;;;;;;;;;;;;;;;;;;5051989;28;19924;-85
2022/08/25 12:30:42;;;;;;;;;;;;;;;;;;5048382;28;19952;-85
2022/08/25 12:33:07;;;;;;;;;;;;;;;;;;5041591;28;19913;-87
2022/08/25 12:35:32;;;;;;;;;;;;;;;;;;5047451;28;19917;-87
2022/08/25 12:37:58;;;;;;;;;;;;;;;;;;5037675;28;19951;-87
2022/08/25 12:40:23;;;;;;;;;;;;;;;;;;5047557;28;20023;-87
2022/08/25 12:42:48;;;;;;;;;;;;;;;;;;5043069;28;19963;-86
2022/08/25 12:45:13;;;;;;;;;;;;;;;;;;5045081;28;19924;-87
2022/08/25 12:47:39;;;;;;;;;;;;;;;;;;5049352;28;19923;-86
2022/08/25 12:50:04;;;;;;;;;;;;;;;;;;5027257;28;20050;-86
2022/08/25 12:52:29;;;;;;;;;;;;;;;;;;5050569;28;19917;-86
2022/08/25 12:54:54;;;;;;;;;;;;;;;;;;5049769;28;20263;-87
2022/08/25 12:57:20;;;;;;;;;;;;;;;;;;5046439;28;19963;-86
2022/08/25 12:59:45;;;;;;;;;;;;;;;;;;5029311;28;20366;-86
2022/08/25 13:02:10;;;;;;;;;;;;;;;;;;5048842;28;19974;-86
2022/08/25 13:04:35;;;;;;;;;;;;;;;;;;5046738;28;19975;-86
2022/08/25 13:07:00;;;;;;;;;;;;;;;;;;5050726;28;20015;-86
2022/08/25 13:09:26;;;;;;;;;;;;;;;;;;5043828;28;19917;-86
2022/08/25 13:11:51;;;;;;;;;;;;;;;;;;5041361;28;19949;-85
2022/08/25 13:14:16;;;;;;;;;;;;;;;;;;5042148;28;19920;-86
2022/08/25 13:16:41;;;;;;;;;;;;;;;;;;5039832;28;19990;-86
2022/08/25 13:19:07;;;;;;;;;;;;;;;;;;5042247;28;20083;-86
2022/08/25 13:21:32;;;;;;;;;;;;;;;;;;5046945;28;19920;-87
2022/08/25 13:23:57;;;;;;;;;;;;;;;;;;5049272;28;19913;-86
2022/08/25 13:26:22;;;;;;;;;;;;;;;;;;5045524;28;20321;-86
2022/08/25 13:28:47;;;;;;;;;;;;;;;;;;5053095;28;19932;-87
2022/08/25 13:31:13;;;;;;;;;;;;;;;;;;5045966;28;20369;-86
2022/08/25 13:33:39;;;;;;;;;;;;;;;;;;5043579;28;19921;-86
2022/08/25 13:38:48;;;;;;;;;;;;;;;;;;5050485;28;20020;-86
2022/08/25 13:41:13;;;;;;;;;;;;;;;;;;5045203;28;20007;-86
2022/08/25 13:43:38;;;;;;;;;;;;;;;;;;5044263;28;20012;-87
2022/08/25 13:46:03;;;;;;;;;;;;;;;;;;5050552;28;20427;-86
2022/08/25 13:48:28;;;;;;;;;;;;;;;;;;5041031;28;19916;-86
2022/08/25 13:50:53;;;;;;;;;;;;;;;;;;5046824;28;19940;-87
2022/08/25 13:53:19;;;;;;;;;;;;;;;;;;5045763;28;19924;-87
2022/08/25 13:55:46;;;;;;;;;;;;;;;;;;5048060;28;20476;-87
2022/08/25 13:58:12;;;;;;;;;;;;;;;;;;5044307;28;19917;-86
2022/08/25 14:00:37;;;;;;;;;;;;;;;;;;5049665;28;19966;-86
2022/08/25 14:03:03;;;;;;;;;;;;;;;;;;5052741;28;19921;-87
2022/08/25 14:05:28;;;;;;;;;;;;;;;;;;5050253;28;19927;-86
2022/08/25 14:07:53;;;;;;;;;;;;;;;;;;5053752;28;20175;-86
2022/08/25 14:10:20;;;;;;;;;;;;;;;;;;5051402;28;19913;-86
2022/08/25 14:12:45;;;;;;;;;;;;;;;;;;5048851;28;19920;-86
2022/08/25 14:15:11;;;;;;;;;;;;;;;;;;5049928;28;20370;-85
2022/08/25 14:17:37;;;;;;;;;;;;;;;;;;5048800;28;20024;-87
2022/08/25 14:20:02;;;;;;;;;;;;;;;;;;5035628;28;20293;-86
2022/08/25 14:22:27;;;;;;;;;;;;;;;;;;5052288;28;19913;-86
2022/08/25 14:24:52;;;;;;;;;;;;;;;;;;5054721;28;19920;-86
2022/08/25 14:27:18;;;;;;;;;;;;;;;;;;5045525;28;19920;-87
2022/08/25 14:29:43;;;;;;;;;;;;;;;;;;5044117;28;19922;-86
2022/08/25 14:32:08;;;;;;;;;;;;;;;;;;5050229;28;20385;-85
2022/08/25 14:34:35;;;;;;;;;;;;;;;;;;5050066;28;20042;-86
2022/08/25 14:37:00;;;;;;;;;;;;;;;;;;5057996;28;19996;-85
2022/08/25 14:39:25;;;;;;;;;;;;;;;;;;5047168;28;20011;-87
2022/08/25 14:41:51;;;;;;;;;;;;;;;;;;5051816;28;20378;-87
2022/08/25 14:44:16;;;;;;;;;;;;;;;;;;5043038;28;19913;-87
2022/08/25 14:46:41;;;;;;;;;;;;;;;;;;5051097;28;20346;-87
2022/08/25 14:49:06;;;;;;;;;;;;;;;;;;5070874;28;20070;-86
2022/08/25 14:51:31;;;;;;;;;;;;;;;;;;5052843;28;19912;-86
2022/08/25 14:53:56;;;;;;;;;;;;;;;;;;5058649;28;19912;-87
2022/08/25 14:56:22;;;;;;;;;;;;;;;;;;5052482;28;20145;-86
2022/08/25 14:58:47;;;;;;;;;;;;;;;;;;5047462;28;19919;-86
2022/08/25 15:01:12;;;;;;;;;;;;;;;;;;5047678;28;20136;-86
2022/08/25 15:03:37;;;;;;;;;;;;;;;;;;5055504;28;19913;-85
2022/08/25 15:06:02;;;;;;;;;;;;;;;;;;5045442;28;20358;-85
2022/08/25 15:11:13;;;;;;;;;;;;;;;;;;5051541;28;19919;-85
2022/08/25 15:13:39;;;;;;;;;;;;;;;;;;5047070;28;19924;-85
2022/08/25 15:16:04;;;;;;;;;;;;;;;;;;5051158;28;19919;-85
2022/08/25 15:18:29;;;;;;;;;;;;;;;;;;5052153;28;20138;-85
2022/08/25 15:20:55;;;;;;;;;;;;;;;;;;5054234;28;19913;-85
2022/08/25 15:23:20;;;;;;;;;;;;;;;;;;5045213;28;19916;-85
2022/08/25 15:25:45;;;;;;;;;;;;;;;;;;5047082;28;19916;-85
2022/08/25 15:28:10;;;;;;;;;;;;;;;;;;5046470;28;19920;-86
2022/08/25 15:30:35;;;;;;;;;;;;;;;;;;5042138;28;19913;-85
2022/08/25 15:33:01;;;;;;;;;;;;;;;;;;5048320;28;19916;-86
2022/08/25 15:35:26;;;;;;;;;;;;;;;;;;5045232;28;20060;-85
2022/08/25 15:37:51;;;;;;;;;;;;;;;;;;5047784;28;20064;-86
2022/08/25 15:40:16;;;;;;;;;;;;;;;;;;5048195;28;19928;-85
2022/08/25 15:42:41;;;;;;;;;;;;;;;;;;5029908;28;19931;-86
2022/08/25 15:45:06;;;;;;;;;;;;;;;;;;5056436;28;19912;-85
2022/08/25 15:47:32;;;;;;;;;;;;;;;;;;5048382;28;20370;-86
2022/08/25 15:49:57;;;;;;;;;;;;;;;;;;5030386;28;19983;-85
2022/08/25 15:52:22;;;;;;;;;;;;;;;;;;5043576;28;19917;-86
2022/08/25 15:54:47;;;;;;;;;;;;;;;;;;5049022;28;20385;-85
2022/08/25 15:57:12;;;;;;;;;;;;;;;;;;5052239;28;19966;-85
2022/08/25 15:59:39;;;;;;;;;;;;;;;;;;5048787;28;19927;-86
2022/08/25 16:02:04;;;;;;;;;;;;;;;;;;5031705;28;19917;-85
2022/08/25 16:04:30;;;;;;;;;;;;;;;;;;5047422;28;19919;-85
2022/08/25 16:06:55;;;;;;;;;;;;;;;;;;5038722;28;19914;-85
2022/08/25 16:09:20;;;;;;;;;;;;;;;;;;5043817;28;19913;-85
2022/08/25 16:11:46;;;;;;;;;;;;;;;;;;5042935;28;19995;-85
2022/08/25 16:14:11;;;;;;;;;;;;;;;;;;5043597;28;20293;-85
2022/08/25 16:16:36;;;;;;;;;;;;;;;;;;5048418;28;19956;-85
2022/08/25 16:19:01;;;;;;;;;;;;;;;;;;5052261;28;20423;-85
2022/08/25 16:21:26;;;;;;;;;;;;;;;;;;5047401;28;19913;-85
2022/08/25 16:23:52;;;;;;;;;;;;;;;;;;5061495;28;19913;-84
2022/08/25 16:26:17;;;;;;;;;;;;;;;;;;5059280;28;20441;-85
2022/08/25 16:28:43;;;;;;;;;;;;;;;;;;5054818;28;20385;-86
2022/08/25 16:31:11;;;;;;;;;;;;;;;;;;5043453;28;21740;-85
2022/08/25 16:33:36;;;;;;;;;;;;;;;;;;5050729;28;20035;-85
2022/08/25 16:36:01;;;;;;;;;;;;;;;;;;5046015;28;20016;-86
2022/08/25 16:38:26;;;;;;;;;;;;;;;;;;5043554;28;20367;-85
2022/08/25 16:40:51;;;;;;;;;;;;;;;;;;5045013;28;20003;-85
2022/08/25 16:43:16;;;;;;;;;;;;;;;;;;5048600;28;20275;-85
2022/08/25 16:45:41;;;;;;;;;;;;;;;;;;5056773;28;19976;-85
2022/08/25 16:48:07;;;;;;;;;;;;;;;;;;5046940;28;20003;-82
2022/08/25 16:50:32;;;;;;;;;;;;;;;;;;5044114;28;20318;-85
2022/08/25 16:55:41;;;;;;;;;;;;;;;;;;5044169;28;19919;-86
2022/08/25 16:58:06;;;;;;;;;;;;;;;;;;5049667;28;20630;-84
2022/08/25 17:00:31;;;;;;;;;;;;;;;;;;5048424;28;19917;-85
2022/08/25 17:02:58;;;;;;;;;;;;;;;;;;5049037;28;19913;-85
2022/08/25 17:05:30;;;;;;;;;;;;;;;;;;5051201;28;19974;-85
2022/08/25 17:10:39;;;;;;;;;;;;;;;;;;5050761;28;19920;-85
2022/08/25 17:13:04;;;;;;;;;;;;;;;;;;5050304;28;20067;-86
2022/08/25 17:15:30;;;;;;;;;;;;;;;;;;5044272;28;19920;-86
2022/08/25 17:17:55;;;;;;;;;;;;;;;;;;5047975;28;19960;-86
2022/08/25 17:20:20;;;;;;;;;;;;;;;;;;5028759;28;20529;-86
2022/08/25 17:22:46;;;;;;;;;;;;;;;;;;5031145;28;19913;-87
2022/08/25 17:25:11;;;;;;;;;;;;;;;;;;5045818;28;19919;-86
2022/08/25 17:27:39;;;;;;;;;;;;;;;;;;5049487;28;19917;-87
2022/08/25 17:30:06;;;;;;;;;;;;;;;;;;5042146;28;20405;-86
2022/08/25 17:32:31;;;;;;;;;;;;;;;;;;5049886;28;19991;-86
2022/08/25 17:34:56;;;;;;;;;;;;;;;;;;5044949;28;20016;-86
2022/08/25 17:37:22;;;;;;;;;;;;;;;;;;5062716;22;19937;-86
2022/08/25 17:40:08;;;;;;;;;;;;;;;;;;5042323;28;20297;-87
2022/08/25 17:48:13;;;;;;;;;;;;;;;;;;5027881;28;19922;-86
2022/08/25 17:50:41;;;;;;;;;;;;;;;;;;5022187;28;19917;-86
2022/08/25 17:53:24;;;;;;;;;;;;;;;;;;5006189;28;20043;-88
2022/08/25 17:56:00;;;;;;;;;;;;;;;;;;5023744;28;19913;-86
2022/08/25 17:58:25;;;;;;;;;;;;;;;;;;5004558;28;19924;-86
2022/08/25 18:00:51;;;;;;;;;;;;;;;;;;5032165;28;20019;-85
2022/08/25 18:03:16;;;;;;;;;;;;;;;;;;5029053;28;20528;-86
2022/08/25 18:05:49;;;;;;;;;;;;;;;;;;5028543;28;19964;-86
2022/08/25 18:08:16;;;;;;;;;;;;;;;;;;5033246;28;19916;-86
2022/08/25 18:10:42;;;;;;;;;;;;;;;;;;5029947;28;19920;-85
2022/08/25 18:13:32;;;;;;;;;;;;;;;;;;5030865;28;19921;-86
2022/08/25 18:16:08;;;;;;;;;;;;;;;;;;5030750;28;19913;-86
2022/08/25 18:18:50;;;;;;;;;;;;;;;;;;5031007;28;20449;-86
2022/08/25 18:21:21;;;;;;;;;;;;;;;;;;5028384;28;19964;-86
2022/08/25 18:23:55;;;;;;;;;;;;;;;;;;5029433;28;19917;-86
2022/08/25 18:26:25;;;;;;;;;;;;;;;;;;5024064;28;19913;-86
2022/08/25 18:29:00;;;;;;;;;;;;;;;;;;5029363;28;20023;-86
2022/08/25 18:34:10;;;;;;;;;;;;;;;;;;5024511;28;20314;-86
2022/08/25 18:36:37;;;;;;;;;;;;;;;;;;5034261;28;20004;-86
2022/08/25 18:41:46;;;;;;;;;;;;;;;;;;5021866;28;19919;-85
2022/08/25 18:44:11;;;;;;;;;;;;;;;;;;5013241;28;19913;-86
2022/08/25 18:46:36;;;;;;;;;;;;;;;;;;5030860;28;19917;-85
2022/08/25 18:49:01;;;;;;;;;;;;;;;;;;5030776;28;19959;-86
2022/08/25 18:51:27;;;;;;;;;;;;;;;;;;5029070;28;19913;-85
2022/08/25 18:53:52;;;;;;;;;;;;;;;;;;5028975;28;19913;-86
2022/08/25 18:56:17;;;;;;;;;;;;;;;;;;5032933;28;19913;-86
2022/08/25 18:58:44;;;;;;;;;;;;;;;;;;5036121;28;19914;-86
2022/08/25 19:01:22;;;;;;;;;;;;;;;;;;;;;
2022/08/25 19:04:00;;;;;;;;;;;;;;;;;;5025910;28;20003;-86
2022/08/25 19:06:26;;;;;;;;;;;;;;;;;;5034605;28;19913;-86
2022/08/25 19:08:51;;;;;;;;;;;;;;;;;;5027786;28;20067;-86
2022/08/25 19:11:16;;;;;;;;;;;;;;;;;;5026192;28;20721;-85
2022/08/25 19:13:44;;;;;;;;;;;;;;;;;;5011254;28;20441;-85
2022/08/25 19:16:11;;;;;;;;;;;;;;;;;;5030640;28;19913;-85
2022/08/25 19:18:37;;;;;;;;;;;;;;;;;;5029752;28;20279;-86
2022/08/25 19:21:03;;;;;;;;;;;;;;;;;;5027325;28;21597;-85
2022/08/25 19:23:31;;;;;;;;;;;;;;;;;;5029541;28;19960;-85
2022/08/25 19:25:56;;;;;;;;;;;;;;;;;;5029828;28;19913;-84
2022/08/25 19:28:21;;;;;;;;;;;;;;;;;;5037862;28;19994;-85
2022/08/25 19:30:46;;;;;;;;;;;;;;;;;;5034165;28;20406;-84
2022/08/25 19:33:14;;;;;;;;;;;;;;;;;;5026041;28;19917;-85
2022/08/25 19:35:42;;;;;;;;;;;;;;;;;;5027177;28;20314;-85
2022/08/25 19:38:08;;;;;;;;;;;;;;;;;;5039127;28;20385;-85
2022/08/25 19:40:34;;;;;;;;;;;;;;;;;;5029534;28;19921;-84
2022/08/25 19:42:59;;;;;;;;;;;;;;;;;;5025731;28;19928;-84
2022/08/25 19:45:24;;;;;;;;;;;;;;;;;;5034423;28;19910;-85
2022/08/25 19:47:50;;;;;;;;;;;;;;;;;;5038536;28;20008;-85
2022/08/25 19:50:16;;;;;;;;;;;;;;;;;;5030095;28;19963;-85
2022/08/25 19:52:41;;;;;;;;;;;;;;;;;;5023719;28;19924;-85
2022/08/25 19:55:06;;;;;;;;;;;;;;;;;;5029734;28;20318;-85
2022/08/25 19:57:35;;;;;;;;;;;;;;;;;;5020215;28;20091;-86
2022/08/25 20:00:00;;;;;;;;;;;;;;;;;;5023820;28;20370;-86
2022/08/25 20:02:25;;;;;;;;;;;;;;;;;;5023704;28;19964;-85
2022/08/25 20:04:51;;;;;;;;;;;;;;;;;;5026531;28;19939;-85
2022/08/25 20:07:16;;;;;;;;;;;;;;;;;;5028437;28;19917;-85
2022/08/25 20:09:41;;;;;;;;;;;;;;;;;;5021522;28;20159;-86
2022/08/25 20:12:06;;;;;;;;;;;;;;;;;;5029742;28;19913;-85
2022/08/25 20:14:32;;;;;;;;;;;;;;;;;;5025609;28;19990;-85
2022/08/25 20:16:57;;;;;;;;;;;;;;;;;;5015417;28;19940;-85
2022/08/25 20:19:23;;;;;;;;;;;;;;;;;;5018624;28;20425;-85
2022/08/25 20:21:48;;;;;;;;;;;;;;;;;;5017683;28;19918;-85
2022/08/25 20:26:58;;;;;;;;;;;;;;;;;;5025700;28;19928;-85
2022/08/25 20:29:23;;;;;;;;;;;;;;;;;;5015355;28;19913;-86
2022/08/25 20:31:48;;;;;;;;;;;;;;;;;;5023697;28;19924;-85
2022/08/25 20:34:13;;;;;;;;;;;;;;;;;;5020870;28;19913;-85
2022/08/25 20:36:38;;;;;;;;;;;;;;;;;;5022820;28;19967;-85
2022/08/25 20:39:04;;;;;;;;;;;;;;;;;;5024727;28;19913;-85
2022/08/25 20:41:29;;;;;;;;;;;;;;;;;;5024136;28;19964;-85
2022/08/25 20:43:55;;;;;;;;;;;;;;;;;;5022195;28;20004;-86
2022/08/25 20:46:20;;;;;;;;;;;;;;;;;;5004586;28;19917;-86
2022/08/25 20:48:45;;;;;;;;;;;;;;;;;;5020861;28;19921;-86
2022/08/25 20:51:24;;;;;;;;;;;;;;;;;;5024441;28;19950;-86
2022/08/25 20:53:51;;;;;;;;;;;;;;;;;;5021593;28;20448;-85
2022/08/25 23:00:11;;;;;;;;;;;;;;;;;;5008697;28;19925;-85